createdAt,value
2022-08-25T00:00:36.581Z,46.10
2022-08-25T00:01:41.314Z,45.60
2022-08-25T00:02:55.063Z,45.60
2022-08-25T00:03:58.735Z,45.60
2022-08-25T00:05:01.958Z,45.60
2022-08-25T00:06:06.944Z,45.60
2022-08-25T00:07:09.142Z,45.60
2022-08-25T00:08:11.521Z,45.60
2022-08-25T00:09:15.569Z,45.70
2022-08-25T00:10:17.892Z,45.60
2022-08-25T00:11:22.392Z,45.70
2022-08-25T00:12:24.576Z,45.60
2022-08-25T00:13:27.978Z,45.70
2022-08-25T00:14:33.450Z,45.70
2022-08-25T00:15:35.979Z,46.20
2022-08-25T00:16:39.229Z,45.70
2022-08-25T00:17:41.667Z,45.70
2022-08-25T00:18:48.262Z,45.80
2022-08-25T00:19:50.487Z,45.70
2022-08-25T00:20:52.765Z,45.80
2022-08-25T00:21:55.578Z,45.90
2022-08-25T00:22:57.865Z,45.80
2022-08-25T00:24:02.260Z,45.80
2022-08-25T00:25:06.436Z,46.00
2022-08-25T00:26:09.621Z,46.00
2022-08-25T00:27:12.611Z,46.20
2022-08-25T00:28:16.757Z,46.20
2022-08-25T00:29:19.363Z,46.20
2022-08-25T00:30:21.843Z,46.30
2022-08-25T00:31:24.486Z,46.40
2022-08-25T00:32:40.491Z,46.40
2022-08-25T00:33:44.407Z,46.50
2022-08-25T00:34:53.128Z,46.50
2022-08-25T00:35:56.366Z,46.50
2022-08-25T00:36:58.585Z,46.50
2022-08-25T00:38:00.999Z,46.50
2022-08-25T00:39:03.830Z,46.50
2022-08-25T00:40:06.742Z,46.60
2022-08-25T00:41:11.237Z,46.60
2022-08-25T00:42:16.343Z,46.60
2022-08-25T00:43:18.804Z,46.70
2022-08-25T00:44:21.399Z,46.70
2022-08-25T00:45:23.788Z,46.70
2022-08-25T00:46:29.184Z,46.70
2022-08-25T00:47:31.440Z,46.80
2022-08-25T00:48:33.829Z,46.80
2022-08-25T00:49:37.519Z,46.80
2022-08-25T00:50:39.841Z,47.00
2022-08-25T00:51:44.866Z,47.00
2022-08-25T00:52:49.602Z,47.10
2022-08-25T00:53:51.821Z,47.10
2022-08-25T00:54:56.311Z,47.10
2022-08-25T00:55:58.881Z,47.10
2022-08-25T00:57:01.346Z,47.40
2022-08-25T00:58:06.841Z,47.10
2022-08-25T00:59:09.055Z,47.10
2022-08-25T01:00:22.432Z,47.10
2022-08-25T01:01:25.235Z,47.10
2022-08-25T01:02:27.598Z,47.10
2022-08-25T01:03:33.510Z,47.00
2022-08-25T01:04:37.908Z,47.00
2022-08-25T01:05:41.107Z,47.10
2022-08-25T01:06:46.591Z,47.10
2022-08-25T01:07:50.136Z,47.30
2022-08-25T01:08:52.813Z,47.30
2022-08-25T01:09:55.610Z,47.30
2022-08-25T01:10:59.380Z,47.40
2022-08-25T01:12:01.869Z,47.30
2022-08-25T01:13:14.607Z,47.30
2022-08-25T01:14:20.078Z,47.30
2022-08-25T01:15:22.442Z,47.40
2022-08-25T01:16:24.975Z,47.50
2022-08-25T01:17:32.857Z,47.60
2022-08-25T01:18:46.566Z,47.50
2022-08-25T01:19:48.779Z,47.50
2022-08-25T01:20:52.512Z,47.60
2022-08-25T01:21:54.717Z,47.50
2022-08-25T01:22:57.753Z,47.50
2022-08-25T01:23:59.974Z,47.40
2022-08-25T01:25:05.210Z,47.40
2022-08-25T01:26:13.085Z,47.40
2022-08-25T01:27:15.279Z,47.30
2022-08-25T01:28:17.927Z,47.30
2022-08-25T01:29:25.167Z,47.30
2022-08-25T01:30:27.918Z,47.30
2022-08-25T01:31:30.828Z,47.20
2022-08-25T01:32:33.661Z,47.10
2022-08-25T01:33:35.878Z,47.20
2022-08-25T01:34:41.362Z,47.20
2022-08-25T01:35:43.603Z,47.20
2022-08-25T01:36:46.056Z,47.10
2022-08-25T01:37:48.445Z,47.10
2022-08-25T01:38:51.046Z,47.10
2022-08-25T01:39:54.019Z,47.10
2022-08-25T01:40:56.227Z,47.10
2022-08-25T01:42:03.662Z,47.10
2022-08-25T01:43:14.942Z,47.10
2022-08-25T01:44:17.707Z,47.10
2022-08-25T01:45:20.297Z,47.10
2022-08-25T01:46:22.530Z,47.20
2022-08-25T01:47:24.918Z,47.20
2022-08-25T01:48:27.188Z,47.20
2022-08-25T01:49:29.404Z,47.20
2022-08-25T01:50:31.614Z,47.30
2022-08-25T01:51:37.757Z,47.30
2022-08-25T01:52:49.885Z,47.20
2022-08-25T01:53:52.020Z,47.30
2022-08-25T01:54:54.165Z,47.50
2022-08-25T01:56:01.981Z,47.70
2022-08-25T01:57:05.015Z,47.60
2022-08-25T01:58:07.225Z,47.50
2022-08-25T01:59:09.859Z,47.50
2022-08-25T02:00:14.504Z,47.50
2022-08-25T02:01:19.428Z,47.50
2022-08-25T02:02:21.732Z,47.50
2022-08-25T02:03:25.191Z,47.40
2022-08-25T02:04:31.949Z,47.40
2022-08-25T02:05:34.142Z,47.40
2022-08-25T02:06:36.467Z,47.40
2022-08-25T02:07:39.169Z,47.40
2022-08-25T02:08:41.488Z,47.40
2022-08-25T02:09:44.296Z,47.40
2022-08-25T02:10:46.585Z,47.30
2022-08-25T02:11:48.758Z,47.40
2022-08-25T02:12:51.029Z,47.40
2022-08-25T02:13:56.895Z,47.50
2022-08-25T02:15:01.637Z,47.50
2022-08-25T02:16:03.955Z,47.60
2022-08-25T02:17:06.290Z,47.50
2022-08-25T02:18:09.049Z,47.50
2022-08-25T02:19:12.285Z,47.50
2022-08-25T02:20:14.466Z,47.50
2022-08-25T02:21:16.625Z,47.50
2022-08-25T02:22:19.031Z,47.50
2022-08-25T02:23:21.225Z,47.50
2022-08-25T02:24:23.539Z,47.60
2022-08-25T02:25:25.787Z,47.60
2022-08-25T02:26:28.023Z,47.60
2022-08-25T02:27:30.218Z,47.70
2022-08-25T02:28:32.408Z,47.80
2022-08-25T02:29:34.640Z,47.80
2022-08-25T02:30:38.346Z,47.80
2022-08-25T02:31:40.650Z,47.80
2022-08-25T02:32:42.874Z,47.70
2022-08-25T02:33:45.414Z,47.70
2022-08-25T02:34:47.599Z,47.70
2022-08-25T02:35:49.919Z,47.70
2022-08-25T02:36:52.152Z,47.90
2022-08-25T02:37:54.595Z,47.90
2022-08-25T02:38:57.481Z,47.90
2022-08-25T02:39:59.992Z,47.90
2022-08-25T02:41:08.924Z,48.00
2022-08-25T02:42:11.231Z,48.00
2022-08-25T02:43:13.496Z,48.10
2022-08-25T02:44:15.969Z,48.20
2022-08-25T02:45:18.646Z,48.20
2022-08-25T02:46:21.877Z,48.20
2022-08-25T02:47:27.053Z,48.20
2022-08-25T02:48:29.553Z,48.20
2022-08-25T02:49:32.139Z,48.20
2022-08-25T02:50:34.321Z,48.10
2022-08-25T02:51:36.766Z,48.10
2022-08-25T02:52:39.864Z,48.10
2022-08-25T02:53:42.979Z,48.00
2022-08-25T02:54:45.249Z,48.00
2022-08-25T02:55:47.642Z,48.00
2022-08-25T02:56:49.945Z,48.00
2022-08-25T02:57:52.156Z,48.10
2022-08-25T02:58:54.683Z,48.10
2022-08-25T02:59:58.035Z,48.20
2022-08-25T03:01:00.255Z,48.20
2022-08-25T03:02:03.384Z,48.30
2022-08-25T03:03:05.949Z,48.40
2022-08-25T03:04:08.199Z,48.40
2022-08-25T03:05:11.132Z,48.40
2022-08-25T03:06:14.551Z,48.30
2022-08-25T03:07:17.660Z,48.40
2022-08-25T03:08:20.280Z,48.60
2022-08-25T03:09:23.024Z,48.60
2022-08-25T03:10:25.413Z,49.20
2022-08-25T03:11:27.979Z,49.00
2022-08-25T03:12:31.041Z,49.10
2022-08-25T03:13:33.317Z,49.10
2022-08-25T03:14:35.531Z,49.10
2022-08-25T03:15:37.969Z,49.10
2022-08-25T03:16:42.914Z,49.20
2022-08-25T03:17:50.644Z,49.30
2022-08-25T03:18:52.946Z,49.30
2022-08-25T03:19:55.225Z,49.50
2022-08-25T03:20:57.674Z,49.50
2022-08-25T03:21:59.934Z,49.60
2022-08-25T03:23:02.901Z,49.30
2022-08-25T03:24:05.566Z,49.20
2022-08-25T03:25:26.419Z,49.10
2022-08-25T03:26:46.953Z,49.00
2022-08-25T03:27:49.428Z,48.90
2022-08-25T03:28:51.675Z,48.70
2022-08-25T03:29:55.465Z,48.60
2022-08-25T03:30:57.696Z,48.50
2022-08-25T03:32:00.641Z,48.60
2022-08-25T03:33:03.210Z,48.60
2022-08-25T03:34:05.558Z,48.60
2022-08-25T03:35:08.562Z,48.60
2022-08-25T03:36:14.572Z,48.60
2022-08-25T03:37:16.786Z,48.70
2022-08-25T03:38:19.018Z,48.80
2022-08-25T03:39:22.274Z,48.80
2022-08-25T03:40:25.429Z,48.80
2022-08-25T03:41:29.796Z,48.80
2022-08-25T03:42:32.021Z,48.80
2022-08-25T03:43:34.194Z,48.80
2022-08-25T03:44:36.400Z,48.80
2022-08-25T03:45:42.522Z,48.80
2022-08-25T03:46:45.957Z,48.90
2022-08-25T03:47:49.256Z,48.80
2022-08-25T03:48:52.022Z,48.80
2022-08-25T03:49:54.181Z,48.90
2022-08-25T03:50:56.388Z,48.90
2022-08-25T03:51:59.304Z,48.90
2022-08-25T03:53:02.499Z,48.90
2022-08-25T03:54:04.963Z,48.90
2022-08-25T03:55:08.852Z,48.90
2022-08-25T03:56:11.312Z,48.90
2022-08-25T03:57:13.567Z,48.90
2022-08-25T03:58:15.827Z,48.90
2022-08-25T03:59:18.207Z,48.90
2022-08-25T04:00:21.841Z,48.90
2022-08-25T04:01:24.210Z,48.90
2022-08-25T04:02:27.494Z,48.90
2022-08-25T04:03:29.725Z,49.00
2022-08-25T04:04:32.083Z,49.10
2022-08-25T04:05:35.246Z,49.10
2022-08-25T04:06:38.295Z,49.10
2022-08-25T04:07:40.612Z,49.20
2022-08-25T04:08:42.832Z,49.10
2022-08-25T04:09:45.122Z,49.10
2022-08-25T04:10:48.589Z,49.10
2022-08-25T04:11:53.281Z,49.10
2022-08-25T04:12:56.085Z,49.20
2022-08-25T04:13:59.081Z,49.30
2022-08-25T04:15:01.447Z,49.10
2022-08-25T04:16:04.661Z,49.10
2022-08-25T04:17:06.890Z,49.10
2022-08-25T04:18:09.190Z,49.10
2022-08-25T04:19:11.550Z,49.10
2022-08-25T04:20:14.148Z,49.10
2022-08-25T04:21:17.786Z,49.20
2022-08-25T04:22:20.066Z,49.10
2022-08-25T04:23:22.281Z,49.00
2022-08-25T04:24:24.639Z,49.00
2022-08-25T04:25:27.445Z,49.10
2022-08-25T04:26:31.505Z,49.10
2022-08-25T04:27:33.820Z,49.20
2022-08-25T04:28:36.179Z,49.30
2022-08-25T04:29:38.394Z,49.30
2022-08-25T04:30:42.604Z,49.30
2022-08-25T04:31:46.885Z,49.40
2022-08-25T04:32:51.001Z,49.50
2022-08-25T04:33:53.617Z,49.50
2022-08-25T04:34:55.868Z,49.50
2022-08-25T04:35:59.115Z,49.50
2022-08-25T04:37:02.757Z,49.60
2022-08-25T04:38:05.380Z,49.60
2022-08-25T04:39:08.254Z,49.60
2022-08-25T04:40:11.049Z,49.60
2022-08-25T04:41:14.529Z,49.60
2022-08-25T04:42:16.749Z,49.50
2022-08-25T04:43:19.003Z,49.60
2022-08-25T04:44:21.435Z,49.60
2022-08-25T04:45:23.996Z,49.70
2022-08-25T04:46:31.144Z,49.60
2022-08-25T04:47:37.159Z,49.60
2022-08-25T04:48:40.138Z,49.60
2022-08-25T04:49:42.487Z,49.50
2022-08-25T04:50:44.667Z,49.50
2022-08-25T04:51:46.955Z,49.40
2022-08-25T04:52:49.428Z,49.40
2022-08-25T04:53:51.850Z,49.40
2022-08-25T04:54:54.061Z,49.40
2022-08-25T04:55:59.530Z,49.30
2022-08-25T04:57:04.156Z,49.30
2022-08-25T04:58:06.804Z,49.30
2022-08-25T04:59:17.797Z,49.30
2022-08-25T05:00:20.088Z,49.30
2022-08-25T05:01:24.202Z,49.70
2022-08-25T05:02:26.505Z,49.20
2022-08-25T05:03:28.683Z,49.10
2022-08-25T05:04:31.728Z,49.10
2022-08-25T05:05:36.753Z,49.10
2022-08-25T05:06:39.127Z,49.10
2022-08-25T05:07:41.303Z,49.10
2022-08-25T05:08:46.016Z,49.10
2022-08-25T05:09:48.448Z,49.10
2022-08-25T05:10:50.809Z,49.10
2022-08-25T05:11:54.618Z,49.10
2022-08-25T05:12:56.807Z,49.10
2022-08-25T05:14:00.606Z,49.10
2022-08-25T05:15:22.805Z,49.10
2022-08-25T05:16:25.920Z,49.10
2022-08-25T05:17:28.666Z,49.10
2022-08-25T05:18:31.993Z,49.30
2022-08-25T05:19:36.008Z,49.40
2022-08-25T05:20:38.269Z,49.40
2022-08-25T05:21:41.102Z,49.50
2022-08-25T05:22:45.392Z,49.50
2022-08-25T05:23:47.949Z,49.60
2022-08-25T05:24:51.130Z,49.70
2022-08-25T05:25:53.345Z,49.90
2022-08-25T05:26:56.005Z,50.00
2022-08-25T05:27:58.201Z,50.20
2022-08-25T05:29:01.483Z,50.30
2022-08-25T05:30:03.898Z,50.30
2022-08-25T05:31:06.258Z,50.40
2022-08-25T05:32:08.694Z,50.30
2022-08-25T05:33:11.780Z,50.40
2022-08-25T05:34:14.882Z,50.50
2022-08-25T05:35:17.166Z,50.60
2022-08-25T05:36:20.187Z,50.30
2022-08-25T05:37:22.807Z,50.60
2022-08-25T05:38:25.237Z,50.90
2022-08-25T05:39:27.452Z,50.60
2022-08-25T05:40:30.048Z,50.40
2022-08-25T05:41:33.421Z,50.30
2022-08-25T05:42:35.972Z,50.40
2022-08-25T05:43:39.819Z,50.50
2022-08-25T05:44:42.170Z,50.40
2022-08-25T05:45:44.476Z,50.40
2022-08-25T05:46:47.192Z,50.40
2022-08-25T05:47:49.460Z,50.30
2022-08-25T05:48:51.841Z,50.40
2022-08-25T05:49:54.038Z,50.30
2022-08-25T05:50:57.696Z,50.30
2022-08-25T05:51:59.909Z,50.20
2022-08-25T05:53:02.221Z,50.10
2022-08-25T05:54:04.707Z,50.20
2022-08-25T05:55:07.393Z,50.20
2022-08-25T05:56:09.855Z,50.10
2022-08-25T05:57:12.023Z,50.20
2022-08-25T05:58:14.543Z,50.20
2022-08-25T05:59:18.748Z,50.20
2022-08-25T06:00:21.035Z,50.20
2022-08-25T06:01:45.169Z,50.30
2022-08-25T06:02:49.737Z,50.40
2022-08-25T06:03:54.402Z,50.30
2022-08-25T06:04:58.717Z,50.30
2022-08-25T06:06:07.787Z,50.50
2022-08-25T06:07:10.493Z,50.70
2022-08-25T06:08:13.208Z,50.60
2022-08-25T06:09:15.574Z,50.60
2022-08-25T06:10:18.358Z,50.60
2022-08-25T06:11:20.703Z,50.50
2022-08-25T06:12:33.888Z,50.60
2022-08-25T06:13:37.105Z,50.50
2022-08-25T06:14:39.564Z,50.60
2022-08-25T06:15:41.783Z,50.60
2022-08-25T06:16:44.059Z,50.70
2022-08-25T06:17:46.557Z,50.80
2022-08-25T06:18:48.848Z,50.70
2022-08-25T06:19:51.116Z,50.60
2022-08-25T06:20:53.689Z,50.80
2022-08-25T06:21:56.416Z,50.90
2022-08-25T06:22:59.893Z,50.80
2022-08-25T06:24:02.456Z,50.80
2022-08-25T06:25:05.442Z,50.80
2022-08-25T06:26:09.864Z,50.80
2022-08-25T06:27:15.409Z,50.60
2022-08-25T06:28:18.197Z,50.80
2022-08-25T06:29:20.981Z,50.70
2022-08-25T06:30:24.493Z,50.70
2022-08-25T06:31:31.177Z,50.60
2022-08-25T06:32:34.320Z,50.80
2022-08-25T06:33:36.653Z,50.70
2022-08-25T06:34:39.258Z,50.80
2022-08-25T06:35:42.270Z,51.00
2022-08-25T06:36:44.632Z,50.70
2022-08-25T06:37:51.338Z,50.60
2022-08-25T06:38:53.784Z,50.60
2022-08-25T06:39:56.142Z,50.70
2022-08-25T06:40:58.460Z,50.80
2022-08-25T06:42:00.848Z,50.40
2022-08-25T06:43:08.705Z,51.20
2022-08-25T06:44:11.860Z,50.80
2022-08-25T06:45:14.160Z,51.50
2022-08-25T06:46:21.561Z,50.80
2022-08-25T06:47:23.959Z,51.10
2022-08-25T06:48:26.270Z,50.90
2022-08-25T06:49:30.914Z,50.90
2022-08-25T06:50:39.777Z,51.40
2022-08-25T06:51:42.394Z,51.20
2022-08-25T06:52:44.760Z,51.10
2022-08-25T06:53:48.945Z,51.20
2022-08-25T06:54:52.187Z,51.10
2022-08-25T06:55:57.973Z,51.30
2022-08-25T06:57:00.779Z,51.10
2022-08-25T06:58:04.960Z,51.20
2022-08-25T06:59:08.614Z,51.30
2022-08-25T07:00:12.422Z,51.50
2022-08-25T07:01:19.883Z,51.80
2022-08-25T07:02:22.952Z,51.90
2022-08-25T07:03:25.993Z,51.90
2022-08-25T07:04:28.529Z,51.80
2022-08-25T07:05:43.198Z,51.60
2022-08-25T07:06:46.901Z,51.40
2022-08-25T07:07:50.773Z,51.30
2022-08-25T07:08:53.108Z,51.00
2022-08-25T07:09:55.898Z,51.00
2022-08-25T07:10:58.475Z,50.90
2022-08-25T07:12:04.392Z,50.70
2022-08-25T07:13:06.698Z,50.90
2022-08-25T07:14:11.056Z,50.90
2022-08-25T07:15:21.080Z,50.60
2022-08-25T07:16:27.528Z,50.40
2022-08-25T07:17:32.697Z,50.40
2022-08-25T07:18:35.389Z,50.40
2022-08-25T07:19:37.653Z,50.60
2022-08-25T07:20:41.481Z,50.70
2022-08-25T07:21:45.894Z,50.50
2022-08-25T07:22:49.154Z,50.10
2022-08-25T07:23:52.383Z,50.10
2022-08-25T07:24:54.671Z,49.70
2022-08-25T07:25:57.410Z,49.70
2022-08-25T07:27:00.402Z,48.90
2022-08-25T07:28:03.202Z,48.40
2022-08-25T07:29:07.811Z,50.10
2022-08-25T07:30:11.293Z,49.10
2022-08-25T07:31:14.258Z,48.20
2022-08-25T07:32:16.579Z,49.70
2022-08-25T07:33:19.246Z,49.60
2022-08-25T07:34:39.967Z,49.40
2022-08-25T07:35:47.115Z,48.40
2022-08-25T07:36:49.937Z,48.50
2022-08-25T07:37:55.604Z,49.70
2022-08-25T07:39:00.373Z,49.90
2022-08-25T07:40:03.214Z,49.90
2022-08-25T07:41:07.183Z,49.90
2022-08-25T07:42:12.313Z,49.00
2022-08-25T07:43:14.609Z,49.90
2022-08-25T07:44:17.111Z,49.90
2022-08-25T07:45:21.446Z,50.30
2022-08-25T07:46:24.077Z,49.90
2022-08-25T07:47:26.626Z,49.50
2022-08-25T07:48:29.014Z,49.10
2022-08-25T07:49:35.914Z,49.20
2022-08-25T07:50:43.993Z,49.40
2022-08-25T07:52:03.975Z,49.00
2022-08-25T07:53:08.894Z,48.50
2022-08-25T07:54:11.486Z,48.70
2022-08-25T07:55:17.985Z,49.30
2022-08-25T07:56:20.808Z,49.50
2022-08-25T07:57:26.356Z,49.80
2022-08-25T07:58:28.916Z,49.70
2022-08-25T07:59:39.439Z,48.80
2022-08-25T08:00:42.552Z,48.80
2022-08-25T08:01:45.135Z,48.60
2022-08-25T08:02:47.575Z,48.20
2022-08-25T08:03:51.645Z,48.20
2022-08-25T08:04:54.325Z,48.70
2022-08-25T08:05:56.707Z,49.00
2022-08-25T08:06:59.064Z,48.20
2022-08-25T08:08:02.398Z,48.80
2022-08-25T08:09:05.297Z,48.50
2022-08-25T08:10:37.165Z,48.60
2022-08-25T08:11:34.195Z,48.50
2022-08-25T08:12:36.676Z,48.50
2022-08-25T08:13:41.419Z,48.20
2022-08-25T08:14:44.799Z,48.00
2022-08-25T08:15:47.822Z,48.20
2022-08-25T08:16:50.400Z,48.00
2022-08-25T08:17:52.835Z,48.20
2022-08-25T08:18:55.688Z,48.30
2022-08-25T08:19:58.450Z,48.60
2022-08-25T08:21:00.749Z,49.10
2022-08-25T08:22:05.138Z,49.00
2022-08-25T08:23:07.945Z,48.70
2022-08-25T08:24:31.239Z,48.20
2022-08-25T08:25:32.858Z,48.30
2022-08-25T08:26:57.633Z,48.50
2022-08-25T08:27:57.400Z,49.10
2022-08-25T08:29:00.844Z,48.60
2022-08-25T08:30:04.953Z,49.10
2022-08-25T08:31:07.405Z,49.00
2022-08-25T08:32:13.455Z,49.30
2022-08-25T08:33:15.711Z,48.60
2022-08-25T08:34:18.403Z,48.30
2022-08-25T08:35:20.784Z,48.90
2022-08-25T08:36:25.496Z,48.40
2022-08-25T08:37:28.059Z,48.50
2022-08-25T08:38:30.604Z,48.20
2022-08-25T08:39:33.066Z,48.30
2022-08-25T08:40:42.073Z,48.20
2022-08-25T08:42:19.080Z,48.30
2022-08-25T08:43:21.420Z,48.30
2022-08-25T08:44:36.957Z,48.20
2022-08-25T08:45:44.167Z,48.00
2022-08-25T08:46:52.832Z,48.00
2022-08-25T08:48:16.538Z,47.90
2022-08-25T08:49:26.741Z,47.90
2022-08-25T08:50:33.261Z,47.80
2022-08-25T08:51:43.317Z,47.80
2022-08-25T08:52:54.823Z,47.80
2022-08-25T08:54:02.694Z,47.90
2022-08-25T08:55:09.767Z,47.70
2022-08-25T08:56:17.968Z,47.60
2022-08-25T08:57:25.588Z,47.70
2022-08-25T08:58:37.513Z,47.60
2022-08-25T08:59:46.701Z,47.60
2022-08-25T09:00:56.511Z,47.60
2022-08-25T09:02:04.165Z,47.50
2022-08-25T09:03:08.910Z,47.60
2022-08-25T09:04:21.139Z,47.50
2022-08-25T09:05:29.258Z,47.50
2022-08-25T09:06:34.135Z,47.40
2022-08-25T09:07:42.092Z,47.40
2022-08-25T09:08:45.143Z,47.30
2022-08-25T09:09:47.870Z,47.30
2022-08-25T09:11:10.331Z,47.20
2022-08-25T09:12:17.226Z,47.10
2022-08-25T09:13:29.497Z,47.10
2022-08-25T09:14:38.514Z,47.00
2022-08-25T09:16:05.657Z,47.00
2022-08-25T09:17:17.379Z,47.00
2022-08-25T09:18:23.325Z,46.90
2022-08-25T09:19:25.649Z,46.90
2022-08-25T09:20:46.620Z,46.90
2022-08-25T09:21:58.880Z,46.90
2022-08-25T09:23:04.504Z,46.80
2022-08-25T09:24:15.896Z,46.80
2022-08-25T09:25:39.641Z,46.80
2022-08-25T09:27:02.256Z,46.90
2022-08-25T09:28:13.106Z,46.90
2022-08-25T09:29:19.046Z,46.80
2022-08-25T09:30:22.166Z,46.90
2022-08-25T09:31:31.774Z,46.90
2022-08-25T09:32:36.001Z,46.80
2022-08-25T09:33:39.409Z,46.80
2022-08-25T09:34:44.813Z,46.70
2022-08-25T09:35:47.501Z,46.70
2022-08-25T09:36:53.494Z,46.70
2022-08-25T09:38:00.006Z,46.70
2022-08-25T09:39:02.697Z,46.60
2022-08-25T09:40:05.847Z,46.60
2022-08-25T09:41:19.523Z,46.50
2022-08-25T09:42:23.914Z,46.60
2022-08-25T09:43:32.225Z,46.40
2022-08-25T09:44:40.938Z,46.50
2022-08-25T09:45:45.167Z,46.30
2022-08-25T09:46:55.385Z,46.40
2022-08-25T09:47:57.652Z,46.40
2022-08-25T09:49:11.196Z,46.30
2022-08-25T09:50:18.651Z,46.30
2022-08-25T09:51:25.031Z,46.30
2022-08-25T09:52:35.418Z,46.40
2022-08-25T09:53:43.276Z,46.40
2022-08-25T09:54:47.679Z,46.40
2022-08-25T09:55:59.833Z,46.30
2022-08-25T09:57:05.393Z,46.30
2022-08-25T09:58:19.695Z,46.30
2022-08-25T09:59:34.308Z,46.20
2022-08-25T10:00:38.219Z,46.20
2022-08-25T10:01:47.784Z,46.20
2022-08-25T10:03:06.027Z,46.20
2022-08-25T10:04:17.703Z,46.20
2022-08-25T10:05:26.531Z,46.10
2022-08-25T10:06:33.292Z,46.20
2022-08-25T10:07:39.499Z,46.10
2022-08-25T10:08:44.506Z,46.10
2022-08-25T10:09:52.013Z,46.00
2022-08-25T10:10:55.574Z,46.00
2022-08-25T10:12:01.130Z,45.90
2022-08-25T10:13:12.184Z,46.00
2022-08-25T10:14:17.508Z,46.00
2022-08-25T10:15:29.616Z,45.90
2022-08-25T10:16:35.801Z,45.90
2022-08-25T10:17:39.493Z,45.90
2022-08-25T10:18:41.816Z,45.90
2022-08-25T10:19:45.294Z,45.90
2022-08-25T10:21:07.916Z,45.90
2022-08-25T10:22:32.196Z,45.90
2022-08-25T10:23:36.746Z,46.00
2022-08-25T10:24:43.997Z,46.00
2022-08-25T10:26:00.373Z,46.00
2022-08-25T10:27:03.967Z,46.20
2022-08-25T10:28:15.877Z,46.30
2022-08-25T10:29:36.516Z,46.30
2022-08-25T10:30:56.927Z,46.10
2022-08-25T10:32:12.243Z,46.30
2022-08-25T10:33:32.727Z,46.40
2022-08-25T10:34:53.335Z,46.40
2022-08-25T10:36:11.516Z,46.40
2022-08-25T10:37:40.041Z,46.70
2022-08-25T10:38:43.380Z,46.70
2022-08-25T10:39:55.459Z,46.60
2022-08-25T10:41:19.746Z,46.50
2022-08-25T10:42:29.522Z,46.50
2022-08-25T10:43:40.924Z,46.70
2022-08-25T10:45:17.174Z,46.90
2022-08-25T10:46:24.050Z,46.90
2022-08-25T10:47:35.788Z,46.80
2022-08-25T10:48:41.449Z,46.80
2022-08-25T10:49:50.089Z,46.70
2022-08-25T10:50:52.457Z,46.60
2022-08-25T10:52:07.549Z,46.70
2022-08-25T10:53:29.251Z,46.60
2022-08-25T10:54:31.493Z,46.50
2022-08-25T10:55:54.010Z,46.70
2022-08-25T10:57:09.601Z,46.70
2022-08-25T10:58:23.731Z,46.70
2022-08-25T10:59:46.887Z,46.70
2022-08-25T11:01:11.507Z,46.50
2022-08-25T11:02:33.396Z,46.30
2022-08-25T11:03:48.427Z,46.70
2022-08-25T11:05:02.759Z,46.80
2022-08-25T11:06:13.440Z,46.60
2022-08-25T11:07:15.669Z,46.80
2022-08-25T11:08:36.419Z,46.40
2022-08-25T11:09:41.235Z,47.00
2022-08-25T11:10:50.526Z,46.30
2022-08-25T11:12:06.507Z,46.70
2022-08-25T11:13:16.143Z,46.50
2022-08-25T11:14:21.020Z,46.80
2022-08-25T11:15:26.248Z,46.90
2022-08-25T11:16:38.382Z,46.60
2022-08-25T11:17:45.848Z,46.50
2022-08-25T11:19:18.960Z,46.20
2022-08-25T11:20:26.807Z,46.10
2022-08-25T11:21:34.858Z,46.20
2022-08-25T11:22:43.716Z,46.10
2022-08-25T11:23:49.358Z,46.20
2022-08-25T11:24:58.106Z,46.40
2022-08-25T11:26:04.487Z,46.30
2022-08-25T11:27:10.064Z,46.00
2022-08-25T11:28:31.068Z,46.20
2022-08-25T11:29:36.757Z,46.20
2022-08-25T11:30:40.223Z,46.30
2022-08-25T11:31:48.347Z,46.20
2022-08-25T11:32:55.476Z,46.20
2022-08-25T11:33:58.033Z,46.20
2022-08-25T11:35:04.508Z,46.40
2022-08-25T11:36:15.139Z,46.50
2022-08-25T11:37:23.032Z,46.20
2022-08-25T11:38:40.931Z,46.40
2022-08-25T11:39:46.791Z,46.40
2022-08-25T11:41:10.999Z,46.40
2022-08-25T11:42:13.793Z,46.30
2022-08-25T11:43:42.397Z,46.70
2022-08-25T11:44:53.207Z,46.70
2022-08-25T11:46:04.355Z,46.40
2022-08-25T11:47:25.402Z,46.20
2022-08-25T11:48:40.002Z,46.20
2022-08-25T11:50:00.975Z,46.30
2022-08-25T11:51:03.281Z,46.10
2022-08-25T11:52:30.783Z,46.20
2022-08-25T11:53:35.250Z,46.20
2022-08-25T11:54:43.392Z,46.10
2022-08-25T11:55:53.663Z,46.20
2022-08-25T11:57:02.186Z,46.20
2022-08-25T11:58:33.810Z,46.10
2022-08-25T11:59:57.216Z,46.20
2022-08-25T12:01:00.690Z,46.20
2022-08-25T12:02:03.069Z,46.20
2022-08-25T12:03:23.914Z,46.20
2022-08-25T12:04:45.126Z,46.10
2022-08-25T12:05:52.709Z,46.30
2022-08-25T12:07:14.963Z,46.10
2022-08-25T12:08:39.070Z,46.30
2022-08-25T12:09:50.902Z,46.20
2022-08-25T12:10:58.918Z,46.30
2022-08-25T12:12:21.304Z,46.20
2022-08-25T12:13:43.765Z,46.20
2022-08-25T12:14:46.719Z,46.20
2022-08-25T12:15:49.715Z,46.60
2022-08-25T12:16:56.277Z,46.20
2022-08-25T12:18:16.296Z,46.30
2022-08-25T12:19:25.605Z,46.20
2022-08-25T12:20:46.701Z,46.20
2022-08-25T12:21:49.937Z,46.00
2022-08-25T12:22:55.103Z,46.10
2022-08-25T12:24:03.326Z,46.00
2022-08-25T12:25:11.471Z,46.00
2022-08-25T12:26:13.646Z,46.00
2022-08-25T12:27:25.015Z,46.00
2022-08-25T12:28:41.429Z,46.00
2022-08-25T12:29:47.053Z,45.90
2022-08-25T12:30:58.813Z,46.00
2022-08-25T12:32:07.266Z,46.00
2022-08-25T12:33:18.231Z,45.90
2022-08-25T12:34:38.803Z,45.90
2022-08-25T12:35:43.843Z,45.90
2022-08-25T12:36:56.987Z,46.00
2022-08-25T12:38:04.860Z,45.90
2022-08-25T12:39:33.721Z,46.00
2022-08-25T12:40:42.055Z,46.00
2022-08-25T12:41:58.289Z,46.00
2022-08-25T12:43:09.089Z,46.00
2022-08-25T12:44:34.960Z,45.80
2022-08-25T12:45:42.342Z,46.00
2022-08-25T12:46:44.915Z,45.90
2022-08-25T12:47:48.385Z,46.00
2022-08-25T12:48:54.102Z,46.00
2022-08-25T12:50:15.929Z,46.00
2022-08-25T12:51:19.682Z,46.00
2022-08-25T12:52:28.121Z,45.90
2022-08-25T12:53:41.098Z,45.80
2022-08-25T12:54:55.295Z,45.90
2022-08-25T12:56:01.491Z,45.90
2022-08-25T12:57:12.035Z,45.80
2022-08-25T12:58:14.354Z,45.80
2022-08-25T12:59:18.418Z,45.80
2022-08-25T13:00:23.484Z,45.80
2022-08-25T13:01:35.655Z,45.90
2022-08-25T13:03:03.103Z,45.90
2022-08-25T13:04:05.427Z,45.90
2022-08-25T13:05:35.227Z,45.90
2022-08-25T13:06:40.229Z,45.80
2022-08-25T13:07:51.603Z,45.80
2022-08-25T13:08:59.547Z,45.80
2022-08-25T13:10:11.297Z,45.80
2022-08-25T13:11:32.238Z,45.80
2022-08-25T13:12:42.286Z,45.80
2022-08-25T13:13:44.504Z,45.70
2022-08-25T13:14:56.378Z,45.80
2022-08-25T13:16:02.994Z,45.80
2022-08-25T13:17:07.362Z,46.00
2022-08-25T13:18:20.244Z,45.80
2022-08-25T13:19:22.855Z,46.20
2022-08-25T13:20:28.104Z,45.80
2022-08-25T13:21:37.652Z,45.70
2022-08-25T13:22:40.353Z,45.60
2022-08-25T13:23:44.129Z,45.80
2022-08-25T13:24:50.667Z,45.70
2022-08-25T13:25:53.912Z,45.70
2022-08-25T13:27:04.943Z,45.50
2022-08-25T13:28:19.286Z,45.60
2022-08-25T13:29:29.902Z,45.70
2022-08-25T13:30:40.144Z,45.50
2022-08-25T13:32:21.588Z,45.40
2022-08-25T13:33:23.997Z,45.50
2022-08-25T13:34:35.064Z,45.50
2022-08-25T13:35:37.769Z,45.50
2022-08-25T13:37:02.665Z,45.50
2022-08-25T13:38:14.853Z,45.60
2022-08-25T13:39:45.422Z,45.60
2022-08-25T13:40:44.296Z,45.50
2022-08-25T13:41:48.315Z,45.40
2022-08-25T13:43:05.647Z,45.60
2022-08-25T13:44:08.004Z,45.30
2022-08-25T13:45:17.176Z,45.60
2022-08-25T13:46:21.090Z,45.60
2022-08-25T13:47:33.878Z,45.60
2022-08-25T13:48:37.756Z,45.50
2022-08-25T13:49:42.656Z,45.50
2022-08-25T13:50:47.570Z,45.50
2022-08-25T13:51:55.357Z,45.60
2022-08-25T13:53:02.560Z,45.60
2022-08-25T13:54:06.402Z,45.50
2022-08-25T13:55:08.622Z,45.60
2022-08-25T13:56:11.507Z,45.60
2022-08-25T13:57:17.000Z,45.50
2022-08-25T13:58:39.509Z,45.50
2022-08-25T13:59:50.311Z,45.50
2022-08-25T14:01:22.776Z,45.60
2022-08-25T14:02:40.269Z,45.40
2022-08-25T14:03:47.302Z,45.50
2022-08-25T14:04:52.852Z,45.40
2022-08-25T14:06:11.346Z,45.60
2022-08-25T14:07:23.062Z,44.50
2022-08-25T14:08:32.249Z,43.30
2022-08-25T14:09:39.683Z,42.90
2022-08-25T14:10:44.776Z,42.70
2022-08-25T14:11:55.440Z,42.80
2022-08-25T14:13:36.796Z,42.80
2022-08-25T14:14:57.299Z,42.20
2022-08-25T14:16:10.806Z,42.60